createdAt,value
2022-08-26T00:01:54.526Z,98303.03
2022-08-26T00:04:24.984Z,98307.44
2022-08-26T00:06:53.884Z,98302.59
2022-08-26T00:09:20.907Z,98303.19
2022-08-26T00:11:47.680Z,98303.69
2022-08-26T00:14:16.319Z,98302.41
2022-08-26T00:16:47.587Z,98295.69
2022-08-26T00:19:18.155Z,98306.19
2022-08-26T00:21:46.572Z,98298.41
2022-08-26T00:24:16.569Z,98310.28
2022-08-26T00:26:44.126Z,98302.75
2022-08-26T00:29:12.190Z,98298.50
2022-08-26T00:31:39.943Z,98306.31
2022-08-26T00:34:07.396Z,98300.97
2022-08-26T00:36:37.353Z,98311.53
2022-08-26T00:39:07.414Z,98308.34
2022-08-26T00:41:37.899Z,98309.50
2022-08-26T00:44:05.596Z,98309.28
2022-08-26T00:46:46.442Z,98308.97
2022-08-26T00:49:35.711Z,98309.28
2022-08-26T00:52:09.705Z,98297.69
2022-08-26T00:54:46.787Z,98306.41
2022-08-26T00:57:18.445Z,98309.19
2022-08-26T00:59:54.274Z,98309.25
2022-08-26T01:02:21.822Z,98299.13
2022-08-26T01:04:58.820Z,98307.72
2022-08-26T01:07:30.423Z,98304.16
2022-08-26T01:10:02.356Z,98312.31
2022-08-26T01:12:40.198Z,98302.88
2022-08-26T01:15:13.608Z,98308.94
2022-08-26T01:17:41.457Z,98304.66
2022-08-26T01:20:57.967Z,98295.56
2022-08-26T01:23:33.777Z,98293.97
2022-08-26T01:26:18.252Z,98295.09
2022-08-26T01:28:51.678Z,98294.88
2022-08-26T01:31:24.915Z,98295.09
2022-08-26T01:34:13.790Z,98301.34
2022-08-26T01:36:41.308Z,98301.00
2022-08-26T01:39:09.817Z,98302.44
2022-08-26T01:41:40.493Z,98305.19
2022-08-26T01:44:22.672Z,98300.69
2022-08-26T01:46:53.062Z,98303.66
2022-08-26T01:49:22.806Z,98300.69
2022-08-26T01:51:56.629Z,98303.16
2022-08-26T01:54:25.491Z,98303.41
2022-08-26T01:56:54.524Z,98308.38
2022-08-26T01:59:23.928Z,98305.97
2022-08-26T02:01:51.461Z,98303.50
2022-08-26T02:04:50.026Z,98305.75
2022-08-26T02:07:19.702Z,98305.97
2022-08-26T02:09:48.643Z,98311.13
2022-08-26T02:12:19.395Z,98306.63
2022-08-26T02:14:54.049Z,98310.94
2022-08-26T02:17:32.172Z,98310.72
2022-08-26T02:19:59.437Z,98315.88
2022-08-26T02:22:26.342Z,98315.44
2022-08-26T02:25:18.447Z,98314.72
2022-08-26T02:27:47.555Z,98318.44
2022-08-26T02:30:26.869Z,98319.03
2022-08-26T02:32:58.907Z,98312.63
2022-08-26T02:35:26.383Z,98315.06
2022-08-26T02:37:53.642Z,98316.13
2022-08-26T02:40:26.488Z,98309.13
2022-08-26T02:42:56.073Z,98310.50
2022-08-26T02:45:26.393Z,98303.78
2022-08-26T02:47:55.685Z,98305.13
2022-08-26T02:50:25.766Z,98306.78
2022-08-26T02:52:53.519Z,98303.03
2022-08-26T02:55:20.830Z,98304.56
2022-08-26T02:57:52.358Z,98301.66
2022-08-26T03:00:19.511Z,98301.38
2022-08-26T03:02:46.408Z,98305.13
2022-08-26T03:05:13.352Z,98301.94
2022-08-26T03:07:40.140Z,98296.09
2022-08-26T03:10:08.852Z,98295.84
2022-08-26T03:12:36.186Z,98296.69
2022-08-26T03:15:03.518Z,98303.09
2022-08-26T03:17:47.596Z,98297.19
2022-08-26T03:20:17.342Z,98297.19
2022-08-26T03:22:45.405Z,98298.78
2022-08-26T03:25:15.968Z,98295.03
2022-08-26T03:27:43.297Z,98295.28
2022-08-26T03:30:31.324Z,98289.69
2022-08-26T03:32:59.058Z,98292.13
2022-08-26T03:35:26.199Z,98289.16
2022-08-26T03:37:53.846Z,98292.94
2022-08-26T03:40:21.500Z,98285.47
2022-08-26T03:42:50.158Z,98282.53
2022-08-26T03:45:18.963Z,98285.75
2022-08-26T03:47:47.442Z,98285.75
2022-08-26T03:50:22.602Z,98286.03
2022-08-26T03:52:52.469Z,98293.00
2022-08-26T03:55:26.220Z,98283.34
2022-08-26T03:57:54.673Z,98280.94
2022-08-26T04:00:22.858Z,98289.81
2022-08-26T04:03:00.997Z,98289.28
2022-08-26T04:05:28.334Z,98297.91
2022-08-26T04:07:55.161Z,98292.53
2022-08-26T04:10:29.084Z,98290.38
2022-08-26T04:13:06.164Z,98289.06
2022-08-26T04:15:33.114Z,98282.66
2022-08-26T04:18:00.701Z,98299.63
2022-08-26T04:20:28.411Z,98292.66
2022-08-26T04:22:55.213Z,98296.41
2022-08-26T04:25:22.521Z,98295.31
2022-08-26T04:27:51.327Z,98291.59
2022-08-26T04:30:19.931Z,98287.56
2022-08-26T04:32:46.759Z,98296.47
2022-08-26T04:35:13.521Z,98300.19
2022-08-26T04:37:42.662Z,98293.78
2022-08-26T04:40:11.173Z,98290.00
2022-08-26T04:42:38.120Z,98292.94
2022-08-26T04:45:10.138Z,98294.81
2022-08-26T04:47:38.643Z,98292.41
2022-08-26T04:50:07.709Z,98295.94
2022-08-26T04:52:36.512Z,98294.88
2022-08-26T04:55:04.797Z,98296.22
2022-08-26T04:57:33.869Z,98302.38
2022-08-26T05:00:00.653Z,98290.56
2022-08-26T05:02:28.110Z,98304.28
2022-08-26T05:04:54.914Z,98301.34
2022-08-26T05:07:21.695Z,98301.84
2022-08-26T05:09:49.226Z,98306.13
2022-08-26T05:12:16.004Z,98309.88
2022-08-26T05:14:43.376Z,98302.88
2022-08-26T05:17:10.257Z,98303.16
2022-08-26T05:19:42.856Z,98301.81
2022-08-26T05:22:09.977Z,98302.88
2022-08-26T05:24:41.126Z,98306.59
2022-08-26T05:27:11.684Z,98304.94
2022-08-26T05:29:39.607Z,98307.13
2022-08-26T05:32:07.031Z,98306.03
2022-08-26T05:34:34.144Z,98309.75
2022-08-26T05:37:01.840Z,98304.38
2022-08-26T05:39:29.252Z,98308.84
2022-08-26T05:41:56.182Z,98311.81
2022-08-26T05:44:23.621Z,98313.13
2022-08-26T05:46:51.588Z,98319.31
2022-08-26T05:49:18.646Z,98314.47
2022-08-26T05:51:47.463Z,98324.38
2022-08-26T05:54:21.747Z,98322.19
2022-08-26T05:56:49.632Z,98326.72
2022-08-26T05:59:24.226Z,98323.50
2022-08-26T06:01:53.491Z,98322.13
2022-08-26T06:04:21.644Z,98330.16
2022-08-26T06:06:48.550Z,98331.22
2022-08-26T06:09:17.476Z,98330.13
2022-08-26T06:11:45.196Z,98338.38
2022-08-26T06:14:12.393Z,98341.59
2022-08-26T06:16:45.018Z,98340.75
2022-08-26T06:19:15.510Z,98334.53
2022-08-26T06:21:47.339Z,98345.25
2022-08-26T06:24:36.793Z,98343.59
2022-08-26T06:27:09.575Z,98342.47
2022-08-26T06:29:38.645Z,98343.00
2022-08-26T06:32:06.723Z,98345.13
2022-08-26T06:34:33.809Z,98349.63
2022-08-26T06:37:06.360Z,98351.44
2022-08-26T06:39:33.492Z,98342.53
2022-08-26T06:42:02.749Z,98343.25
2022-08-26T06:44:30.560Z,98346.72
2022-08-26T06:46:59.197Z,98351.47
2022-08-26T06:49:27.501Z,98341.16
2022-08-26T06:51:58.395Z,98338.69
2022-08-26T06:54:26.497Z,98352.09
2022-08-26T06:56:53.798Z,98349.88
2022-08-26T06:59:21.748Z,98354.38
2022-08-26T07:01:49.774Z,98352.94
2022-08-26T07:04:21.981Z,98355.31
2022-08-26T07:06:52.908Z,98354.94
2022-08-26T07:09:27.036Z,98352.69
2022-08-26T07:11:56.352Z,98357.22
2022-08-26T07:14:24.345Z,98353.06
2022-08-26T07:16:51.720Z,98350.28
2022-08-26T07:19:29.928Z,98345.38
2022-08-26T07:22:05.075Z,98352.25
2022-08-26T07:24:35.214Z,98353.50
2022-08-26T07:27:06.725Z,98358.50
2022-08-26T07:29:35.576Z,98354.84
2022-08-26T07:32:03.495Z,98362.88
2022-08-26T07:34:32.262Z,98349.53
2022-08-26T07:37:00.532Z,98351.84
2022-08-26T07:39:28.216Z,98350.91
2022-08-26T07:41:59.225Z,98352.94
2022-08-26T07:44:27.746Z,98358.16
2022-08-26T07:46:54.927Z,98362.09
2022-08-26T07:49:24.465Z,98354.09
2022-08-26T07:51:53.836Z,98355.00
2022-08-26T07:54:27.097Z,98351.63
2022-08-26T07:56:54.618Z,98350.66
2022-08-26T07:59:23.742Z,98353.47
2022-08-26T08:01:51.107Z,98353.28
2022-08-26T08:04:25.516Z,98356.84
2022-08-26T08:06:54.412Z,98355.06
2022-08-26T08:09:22.513Z,98356.25
2022-08-26T08:11:49.839Z,98348.75
2022-08-26T08:14:19.670Z,98349.66
2022-08-26T08:16:53.611Z,98353.25
2022-08-26T08:19:21.924Z,98345.97
2022-08-26T08:21:49.177Z,98347.34
2022-08-26T08:24:16.049Z,98353.63
2022-08-26T08:26:42.885Z,98342.59
2022-08-26T08:29:09.787Z,98345.06
2022-08-26T08:34:26.600Z,98345.06
2022-08-26T08:36:54.379Z,98341.78
2022-08-26T08:39:22.182Z,98344.56
2022-08-26T08:42:23.663Z,98352.91
2022-08-26T08:44:56.991Z,98352.31
2022-08-26T08:47:42.808Z,98352.06
2022-08-26T08:50:21.429Z,98350.66
2022-08-26T08:53:11.118Z,98345.47
2022-08-26T08:56:03.223Z,98344.88
2022-08-26T08:59:07.831Z,98345.69
2022-08-26T09:02:22.338Z,98346.19
2022-08-26T09:04:52.257Z,98345.72
2022-08-26T09:07:27.191Z,98337.28
2022-08-26T09:10:25.997Z,98336.34
2022-08-26T09:12:52.901Z,98328.22
2022-08-26T09:15:30.466Z,98337.31
2022-08-26T09:18:11.050Z,98339.69
2022-08-26T09:21:03.550Z,98338.28
2022-08-26T09:23:35.789Z,98332.50
2022-08-26T09:26:42.386Z,98328.78
2022-08-26T09:29:23.647Z,98330.84
2022-08-26T09:31:53.176Z,98322.66
2022-08-26T09:34:25.481Z,98325.84
2022-08-26T09:37:00.365Z,98319.25
2022-08-26T09:39:37.704Z,98316.06
2022-08-26T09:42:07.681Z,98306.69
2022-08-26T09:44:56.759Z,98300.25
2022-08-26T09:47:32.120Z,98295.59
2022-08-26T09:50:33.200Z,98286.84
2022-08-26T09:53:12.891Z,98275.56
2022-08-26T09:55:47.609Z,98274.34
2022-08-26T09:58:37.934Z,98268.97
2022-08-26T10:01:23.757Z,98273.56
2022-08-26T10:03:51.814Z,98269.16
2022-08-26T10:06:21.194Z,98275.41
2022-08-26T10:08:54.925Z,98265.88
2022-08-26T10:11:45.769Z,98274.06
2022-08-26T10:14:53.417Z,98271.09
2022-08-26T10:17:30.826Z,98267.66
2022-08-26T10:20:23.103Z,98270.91
2022-08-26T10:23:14.809Z,98263.06
2022-08-26T10:26:24.877Z,98268.97
2022-08-26T10:29:12.234Z,98261.59
2022-08-26T10:32:02.558Z,98258.56
2022-08-26T10:34:33.255Z,98260.59
2022-08-26T10:37:22.712Z,98257.56
2022-08-26T10:39:58.881Z,98262.69
2022-08-26T10:42:37.444Z,98255.88
2022-08-26T10:45:25.123Z,98254.56
2022-08-26T10:48:10.861Z,98252.94
2022-08-26T10:50:43.855Z,98244.53
2022-08-26T10:53:24.986Z,98242.09
2022-08-26T10:56:49.431Z,98240.97
2022-08-26T11:00:36.436Z,98235.44
2022-08-26T11:03:29.372Z,98238.88
2022-08-26T11:06:27.465Z,98244.38
2022-08-26T11:09:03.603Z,98242.09
2022-08-26T11:11:39.400Z,98240.41
2022-08-26T11:14:08.421Z,98230.75
2022-08-26T11:16:47.869Z,98241.41
2022-08-26T11:20:02.235Z,98237.09
2022-08-26T11:22:47.377Z,98232.00
2022-08-26T11:25:19.465Z,98230.75
2022-08-26T11:27:52.261Z,98220.28
2022-08-26T11:30:20.168Z,98212.31
2022-08-26T11:32:57.167Z,98212.47
2022-08-26T11:35:24.493Z,98210.09
2022-08-26T11:37:57.284Z,98205.09
2022-08-26T11:40:30.502Z,98200.78
2022-08-26T11:43:07.191Z,98199.84
2022-08-26T11:45:39.307Z,98197.81
2022-08-26T11:48:21.852Z,98201.03
2022-08-26T11:51:20.462Z,98209.00
2022-08-26T11:53:47.485Z,98206.03
2022-08-26T11:56:31.619Z,98208.63
2022-08-26T11:59:07.324Z,98213.81
2022-08-26T12:01:41.561Z,98218.22
2022-08-26T12:04:26.874Z,98222.88
2022-08-26T12:06:54.665Z,98218.66
2022-08-26T12:09:34.449Z,98234.19
2022-08-26T12:12:37.296Z,98237.25
2022-08-26T12:15:17.004Z,98213.38
2022-08-26T12:17:49.424Z,98209.88
2022-08-26T12:20:53.958Z,98206.50
2022-08-26T12:23:36.539Z,98205.69
2022-08-26T12:26:23.545Z,98195.94
2022-08-26T12:29:26.446Z,98199.94
2022-08-26T12:32:17.645Z,98205.97
2022-08-26T12:34:48.996Z,98209.84
2022-08-26T12:37:16.407Z,98213.16
2022-08-26T12:39:45.833Z,98216.47
2022-08-26T12:42:12.558Z,98214.00
2022-08-26T12:44:58.449Z,98205.13
2022-08-26T12:47:42.492Z,98206.38
2022-08-26T12:50:10.570Z,98201.19
2022-08-26T12:52:56.242Z,98204.94
2022-08-26T12:55:36.304Z,98198.16
2022-08-26T12:58:18.379Z,98191.00
2022-08-26T13:00:58.389Z,98188.97
2022-08-26T13:03:36.946Z,98188.47
2022-08-26T13:06:31.155Z,98175.34
2022-08-26T13:09:06.324Z,98171.44
2022-08-26T13:11:38.984Z,98169.91
2022-08-26T13:14:24.979Z,98161.69
2022-08-26T13:16:53.386Z,98151.59
2022-08-26T13:19:24.010Z,98143.34
2022-08-26T13:22:00.629Z,98144.06
2022-08-26T13:24:44.044Z,98138.91
2022-08-26T13:27:14.230Z,98141.38
2022-08-26T13:29:41.606Z,98126.69
2022-08-26T13:32:09.767Z,98119.91
2022-08-26T13:34:38.103Z,98128.28
2022-08-26T13:37:06.608Z,98117.53
2022-08-26T13:39:33.676Z,98120.00
2022-08-26T13:42:00.505Z,98122.47
2022-08-26T13:44:27.718Z,98116.66
2022-08-26T13:46:54.722Z,98119.59
2022-08-26T13:49:22.504Z,98113.06
2022-08-26T13:51:49.368Z,98106.53
2022-08-26T13:54:16.284Z,98103.09
2022-08-26T13:56:43.384Z,98110.56
2022-08-26T13:59:11.121Z,98103.69
2022-08-26T14:01:40.048Z,98105.28
2022-08-26T14:04:08.016Z,98099.88
2022-08-26T14:06:34.870Z,98103.81
2022-08-26T14:09:01.760Z,98103.81
2022-08-26T14:11:29.588Z,98106.94
2022-08-26T14:14:05.864Z,98091.66
2022-08-26T14:16:37.727Z,98094.75
2022-08-26T14:19:24.591Z,98086.56
2022-08-26T14:21:51.520Z,98094.75
2022-08-26T14:24:18.349Z,98091.25
2022-08-26T14:26:45.125Z,98094.75
2022-08-26T14:29:14.726Z,98085.78
2022-08-26T14:31:43.958Z,98076.78
2022-08-26T14:34:14.075Z,98078.72
2022-08-26T14:36:41.008Z,98074.78
2022-08-26T14:39:12.871Z,98066.22
2022-08-26T14:41:55.160Z,98070.88
2022-08-26T14:44:32.764Z,98065.41
2022-08-26T14:47:02.418Z,98068.50
2022-08-26T14:49:31.069Z,98045.03
2022-08-26T14:51:58.120Z,98049.72
2022-08-26T14:54:24.985Z,98044.25
2022-08-26T14:56:53.938Z,98044.25
2022-08-26T14:59:25.370Z,98046.19
2022-08-26T15:01:53.150Z,98059.06
2022-08-26T15:04:20.710Z,98059.78
2022-08-26T15:06:48.650Z,98068.34
2022-08-26T15:09:16.301Z,98060.50
2022-08-26T15:11:43.437Z,98065.88
2022-08-26T15:14:19.058Z,98060.69
2022-08-26T15:16:53.772Z,98063.22
2022-08-26T15:19:21.557Z,98064.13
2022-08-26T15:21:49.234Z,98067.66
2022-08-26T15:24:19.926Z,98068.56
2022-08-26T15:26:48.603Z,98071.00
2022-08-26T15:29:16.744Z,98071.50
2022-08-26T15:31:43.830Z,98064.53
2022-08-26T15:34:16.385Z,98044.69
2022-08-26T15:36:46.841Z,98055.66
2022-08-26T15:39:17.179Z,98050.38
2022-08-26T15:41:44.338Z,98059.38
2022-08-26T15:44:12.753Z,98063.06
2022-08-26T15:46:40.247Z,98075.34
2022-08-26T15:49:07.668Z,98077.84
2022-08-26T15:51:45.088Z,98077.19
2022-08-26T15:54:15.883Z,98087.09
2022-08-26T15:56:43.575Z,98079.47
2022-08-26T15:59:11.704Z,98074.28
2022-08-26T16:01:39.720Z,98081.78
2022-08-26T16:04:07.314Z,98087.00
2022-08-26T16:06:38.734Z,98090.75
2022-08-26T16:09:06.911Z,98089.25
2022-08-26T16:11:35.941Z,98103.13
2022-08-26T16:14:04.483Z,98104.00
2022-08-26T16:16:32.111Z,98114.31
2022-08-26T16:19:00.562Z,98121.47
2022-08-26T16:21:32.029Z,98133.72
2022-08-26T16:23:59.810Z,98141.53
2022-08-26T16:26:33.035Z,98141.31
2022-08-26T16:29:02.542Z,98152.88
2022-08-26T16:31:29.734Z,98159.41
2022-08-26T16:33:56.752Z,98163.72
2022-08-26T16:36:23.610Z,98157.41
2022-08-26T16:38:56.338Z,98159.44
2022-08-26T16:41:30.434Z,98159.56
2022-08-26T16:43:57.723Z,98157.88
2022-08-26T16:46:26.168Z,98155.34
2022-08-26T16:48:55.944Z,98152.53
2022-08-26T16:51:26.873Z,98160.53
2022-08-26T16:53:56.161Z,98157.56
2022-08-26T16:56:30.672Z,98162.69
2022-08-26T16:59:03.298Z,98176.88
2022-08-26T17:01:30.368Z,98198.44
2022-08-26T17:03:57.240Z,98195.09
2022-08-26T17:06:24.143Z,98215.81
2022-08-26T17:08:51.491Z,98215.31
2022-08-26T17:11:18.595Z,98219.59
2022-08-26T17:13:45.438Z,98209.03
2022-08-26T17:16:13.471Z,98213.50
2022-08-26T17:18:40.648Z,98208.31
2022-08-26T17:21:11.617Z,98211.09
2022-08-26T17:23:40.911Z,98200.53
2022-08-26T17:26:08.490Z,98195.69
2022-08-26T17:28:36.074Z,98199.38
2022-08-26T17:31:04.258Z,98199.63
2022-08-26T17:33:32.481Z,98209.13
2022-08-26T17:36:00.642Z,98213.50
2022-08-26T17:38:29.027Z,98222.06
2022-08-26T17:40:57.626Z,98230.97
2022-08-26T17:43:27.161Z,98240.47
2022-08-26T17:46:07.038Z,98242.53
2022-08-26T17:48:36.733Z,98248.16
2022-08-26T17:51:23.372Z,98273.06
2022-08-26T17:53:52.150Z,98270.34
2022-08-26T17:56:25.402Z,98295.13
2022-08-26T17:58:56.489Z,98300.59
2022-08-26T18:01:27.061Z,98298.69
2022-08-26T18:04:00.114Z,98296.63
2022-08-26T18:06:30.226Z,98268.47
2022-08-26T18:08:58.041Z,98294.91
2022-08-26T18:11:25.368Z,98303.00
2022-08-26T18:13:53.151Z,98300.22
2022-08-26T18:16:20.518Z,98292.09
2022-08-26T18:18:51.906Z,98294.19
2022-08-26T18:21:23.751Z,98299.00
2022-08-26T18:23:53.090Z,98314.41
2022-08-26T18:26:25.954Z,98318.53
2022-08-26T18:28:53.394Z,98319.84
2022-08-26T18:31:21.066Z,98316.72
2022-08-26T18:33:48.316Z,98305.81
2022-08-26T18:36:29.419Z,98306.50
2022-08-26T18:38:57.275Z,98293.81
2022-08-26T18:41:28.661Z,98310.63
2022-08-26T18:43:56.665Z,98305.41
2022-08-26T18:46:27.840Z,98318.13
2022-08-26T18:48:56.502Z,98323.84
2022-08-26T18:51:32.369Z,98319.13
2022-08-26T18:54:02.896Z,98317.22
2022-08-26T18:56:30.716Z,98321.63
2022-08-26T18:58:59.709Z,98327.63
2022-08-26T19:01:29.441Z,98328.09
2022-08-26T19:03:58.789Z,98337.00
2022-08-26T19:06:28.369Z,98321.19
2022-08-26T19:08:57.863Z,98332.28
2022-08-26T19:11:32.285Z,98331.84
2022-08-26T19:14:10.178Z,98325.97
2022-08-26T19:16:37.646Z,98328.78
2022-08-26T19:19:05.485Z,98328.03
2022-08-26T19:21:35.043Z,98328.84
2022-08-26T19:24:07.128Z,98334.91
2022-08-26T19:26:34.384Z,98339.81
2022-08-26T19:29:01.654Z,98338.00
2022-08-26T19:31:28.546Z,98335.91
2022-08-26T19:33:56.571Z,98342.94
2022-08-26T19:36:25.861Z,98333.53
2022-08-26T19:38:54.422Z,98325.00
2022-08-26T19:41:37.183Z,98328.31
2022-08-26T19:44:11.554Z,98327.22
2022-08-26T19:46:39.855Z,98331.66
2022-08-26T19:49:06.824Z,98326.22
2022-08-26T19:51:35.523Z,98334.06
2022-08-26T19:54:03.137Z,98334.06
2022-08-26T19:56:30.269Z,98334.06
2022-08-26T19:58:58.006Z,98333.06
2022-08-26T20:01:25.670Z,98336.66
2022-08-26T20:03:53.069Z,98331.53
2022-08-26T20:06:20.319Z,98338.59
2022-08-26T20:08:48.200Z,98340.00
2022-08-26T20:11:18.906Z,98351.09
2022-08-26T20:13:47.334Z,98355.97
2022-08-26T20:16:16.353Z,98352.53
2022-08-26T20:19:04.035Z,98358.34
2022-08-26T20:21:38.131Z,98356.97
2022-08-26T20:24:14.187Z,98362.06
2022-08-26T20:26:43.553Z,98360.28
2022-08-26T20:29:13.341Z,98371.59
2022-08-26T20:31:41.124Z,98376.47
2022-08-26T20:34:08.097Z,98370.84
2022-08-26T20:36:35.061Z,98380.84
2022-08-26T20:39:01.920Z,98373.34
2022-08-26T20:41:28.856Z,98373.03
2022-08-26T20:43:57.005Z,98370.06
2022-08-26T20:46:25.417Z,98370.06
2022-08-26T20:48:53.884Z,98372.44
2022-08-26T20:51:23.491Z,98371.06
2022-08-26T20:53:51.109Z,98368.31
2022-08-26T20:56:23.685Z,98373.75
2022-08-26T20:58:54.200Z,98378.88
2022-08-26T21:01:28.198Z,98371.88
2022-08-26T21:03:57.005Z,98365.47
2022-08-26T21:06:23.881Z,98367.13
2022-08-26T21:08:50.950Z,98357.44
2022-08-26T21:11:18.820Z,98355.03
2022-08-26T21:14:04.516Z,98356.41
2022-08-26T21:16:36.601Z,98360.16
2022-08-26T21:19:06.640Z,98359.63
2022-08-26T21:21:34.251Z,98355.91
2022-08-26T21:24:01.179Z,98358.69
2022-08-26T21:26:28.005Z,98357.63
2022-08-26T21:28:54.970Z,98362.00
2022-08-26T21:31:25.643Z,98373.88
2022-08-26T21:33:53.212Z,98381.44
2022-08-26T21:36:20.650Z,98381.03
2022-08-26T21:38:48.009Z,98378.47
2022-08-26T21:41:19.360Z,98389.81
2022-08-26T21:43:48.860Z,98382.25
2022-08-26T21:46:19.922Z,98365.34
2022-08-26T21:49:00.254Z,98372.72
2022-08-26T21:51:32.065Z,98376.22
2022-08-26T21:54:00.854Z,98383.22
2022-08-26T21:56:32.363Z,98380.06
2022-08-26T21:59:00.611Z,98388.19
2022-08-26T22:01:34.645Z,98383.63
2022-08-26T22:04:03.990Z,98389.25
2022-08-26T22:06:33.701Z,98386.34
2022-08-26T22:09:01.285Z,98396.59
2022-08-26T22:11:29.232Z,98400.41
2022-08-26T22:13:56.930Z,98397.44
2022-08-26T22:16:26.664Z,98403.44
2022-08-26T22:18:54.703Z,98403.19
2022-08-26T22:21:25.953Z,98413.94
2022-08-26T22:23:58.037Z,98410.97
2022-08-26T22:26:29.919Z,98415.56
2022-08-26T22:28:59.535Z,98420.94
2022-08-26T22:31:37.410Z,98420.41
2022-08-26T22:34:08.805Z,98421.50
2022-08-26T22:36:44.001Z,98418.53
2022-08-26T22:39:14.451Z,98418.53
2022-08-26T22:41:43.453Z,98415.56
2022-08-26T22:44:12.218Z,98420.94
2022-08-26T22:46:41.599Z,98420.13
2022-08-26T22:49:12.391Z,98417.19
2022-08-26T22:51:39.305Z,98410.44
2022-08-26T22:54:06.523Z,98408.03
2022-08-26T22:56:34.069Z,98411.81
2022-08-26T22:59:00.986Z,98408.53
2022-08-26T23:01:27.861Z,98398.06
2022-08-26T23:03:54.674Z,98401.28
2022-08-26T23:06:21.775Z,98399.41
2022-08-26T23:08:49.308Z,98397.25
2022-08-26T23:11:16.143Z,98400.47
2022-08-26T23:13:43.039Z,98397.25
2022-08-26T23:16:12.274Z,98412.59
2022-08-26T23:18:40.832Z,98406.41
2022-08-26T23:21:08.295Z,98405.59
2022-08-26T23:23:35.575Z,98410.44
2022-08-26T23:26:05.932Z,98408.03
2022-08-26T23:28:35.092Z,98394.03
2022-08-26T23:31:02.040Z,98395.09
2022-08-26T23:33:49.125Z,98391.06
2022-08-26T23:36:18.170Z,98394.03
2022-08-26T23:38:48.127Z,98383.00
2022-08-26T23:41:22.044Z,98380.03
2022-08-26T23:43:49.985Z,98379.03
2022-08-26T23:46:17.536Z,98387.88
2022-08-26T23:48:44.893Z,98382.28
2022-08-26T23:51:31.053Z,98369.91
2022-08-26T23:53:58.163Z,98383.66
2022-08-26T23:56:26.569Z,98372.59
2022-08-26T23:58:54.249Z,98377.19
